createdAt,value
2019-02-28T00:00:46.052Z,10.39
2019-02-28T00:05:48.850Z,10.32
2019-02-28T00:10:51.558Z,10.30
2019-02-28T00:15:54.256Z,10.33
2019-02-28T00:20:56.933Z,10.38
2019-02-28T00:25:59.623Z,10.33
2019-02-28T00:31:02.369Z,10.33
2019-02-28T00:36:05.068Z,10.41
2019-02-28T00:41:09.374Z,10.39
2019-02-28T00:46:12.363Z,10.42
2019-02-28T00:51:15.059Z,10.36
2019-02-28T00:56:18.358Z,10.33
2019-02-28T01:01:21.246Z,10.30
2019-02-28T01:06:23.977Z,10.30
2019-02-28T01:11:26.688Z,10.31
2019-02-28T01:16:29.404Z,10.28
2019-02-28T01:21:32.092Z,10.22
2019-02-28T01:26:34.787Z,10.17
2019-02-28T01:31:37.489Z,10.09
2019-02-28T01:36:40.184Z,10.03
2019-02-28T01:41:45.272Z,9.94
2019-02-28T01:46:48.482Z,9.93
2019-02-28T01:51:52.061Z,9.93
2019-02-28T01:56:54.744Z,9.99
2019-02-28T02:01:57.461Z,9.97
2019-02-28T02:07:00.480Z,9.92
2019-02-28T02:12:03.308Z,9.79
2019-02-28T02:17:06.027Z,9.73
2019-02-28T02:22:09.512Z,9.72
2019-02-28T02:27:13.034Z,9.70
2019-02-28T02:32:15.774Z,9.67
2019-02-28T02:37:18.654Z,9.64
2019-02-28T02:42:21.392Z,9.60
2019-02-28T02:47:24.119Z,9.55
2019-02-28T02:52:30.428Z,9.45
2019-02-28T02:57:31.519Z,9.43
2019-02-28T03:02:34.389Z,9.38
2019-02-28T03:07:37.238Z,9.31
2019-02-28T03:12:39.936Z,9.21
2019-02-28T03:17:46.526Z,9.10
2019-02-28T03:22:47.243Z,9.06
2019-02-28T03:27:55.044Z,9.08
2019-02-28T03:32:54.584Z,9.11
2019-02-28T03:37:57.280Z,9.05
2019-02-28T03:43:05.355Z,9.00
2019-02-28T03:48:04.574Z,8.91
2019-02-28T03:53:07.313Z,8.94
2019-02-28T03:58:10.195Z,8.86
2019-02-28T04:03:12.904Z,8.81
2019-02-28T04:08:15.679Z,8.81
2019-02-28T04:13:19.521Z,8.90
2019-02-28T04:18:23.159Z,8.92
2019-02-28T04:23:25.903Z,8.92
2019-02-28T04:28:28.617Z,8.91
2019-02-28T04:33:37.361Z,8.86
2019-02-28T04:38:36.071Z,8.72
2019-02-28T04:43:41.597Z,8.67
2019-02-28T04:48:45.661Z,8.68
2019-02-28T04:53:52.626Z,8.63
2019-02-28T04:58:53.361Z,8.64
2019-02-28T05:03:56.139Z,8.48
2019-02-28T05:08:58.887Z,8.48
2019-02-28T05:14:01.633Z,8.46
2019-02-28T05:19:04.424Z,8.40
2019-02-28T05:24:07.942Z,8.33
2019-02-28T05:29:12.040Z,8.30
2019-02-28T05:34:16.739Z,8.23
2019-02-28T05:39:19.583Z,8.20
2019-02-28T05:44:22.290Z,8.14
2019-02-28T05:49:25.060Z,8.16
2019-02-28T05:59:46.455Z,7.97
2019-02-28T06:04:50.490Z,7.92
2019-02-28T06:09:54.956Z,7.93
2019-02-28T06:15:03.317Z,7.86
2019-02-28T06:20:05.735Z,7.88
2019-02-28T06:25:10.334Z,7.92
2019-02-28T06:30:14.953Z,7.96
2019-02-28T06:35:20.466Z,7.98
2019-02-28T06:40:26.153Z,8.02
2019-02-28T06:45:31.103Z,8.02
2019-02-28T06:50:35.030Z,8.00
2019-02-28T06:55:47.152Z,8.17
2019-02-28T07:00:50.618Z,8.36
2019-02-28T07:05:54.390Z,8.49
2019-02-28T07:10:58.112Z,8.51
2019-02-28T07:16:04.307Z,8.57
2019-02-28T07:21:07.836Z,8.63
2019-02-28T07:26:11.451Z,8.66
2019-02-28T07:31:14.141Z,8.71
2019-02-28T07:36:16.847Z,8.84
2019-02-28T07:41:20.329Z,8.99
2019-02-28T07:46:24.709Z,9.11
2019-02-28T07:51:27.626Z,9.24
2019-02-28T07:56:31.409Z,9.38
2019-02-28T08:01:34.150Z,9.52
2019-02-28T08:06:39.234Z,9.70
2019-02-28T08:11:41.627Z,9.86
2019-02-28T08:16:44.343Z,10.01
2019-02-28T08:21:50.208Z,10.15
2019-02-28T08:26:53.505Z,10.35
2019-02-28T08:31:57.568Z,10.43
2019-02-28T08:37:00.443Z,10.61
2019-02-28T08:42:04.735Z,10.85
2019-02-28T08:47:07.984Z,11.03
2019-02-28T08:52:12.058Z,11.19
2019-02-28T08:57:15.651Z,11.30
2019-02-28T09:02:20.144Z,11.46
2019-02-28T09:07:23.962Z,11.71
2019-02-28T09:12:29.991Z,11.77
2019-02-28T09:17:33.483Z,11.79
2019-02-28T09:22:38.034Z,11.72
2019-02-28T09:27:41.976Z,11.83
2019-02-28T09:32:48.217Z,12.04
2019-02-28T09:37:51.206Z,12.35
2019-02-28T09:42:55.537Z,12.50
2019-02-28T09:48:02.018Z,12.64
2019-02-28T09:53:05.505Z,12.64
2019-02-28T09:58:09.479Z,12.89
2019-02-28T10:03:15.476Z,13.02
2019-02-28T10:08:21.813Z,13.23
2019-02-28T10:13:26.353Z,13.42
2019-02-28T10:18:30.480Z,13.65
2019-02-28T10:23:33.918Z,13.75
2019-02-28T10:28:38.503Z,13.91
2019-02-28T10:33:42.313Z,13.95
2019-02-28T10:38:46.489Z,14.09
2019-02-28T10:43:54.785Z,14.31
2019-02-28T10:48:56.750Z,14.36
2019-02-28T10:54:00.715Z,14.54
2019-02-28T10:59:05.328Z,14.68
2019-02-28T11:04:09.563Z,15.02
2019-02-28T11:09:21.692Z,15.41
2019-02-28T11:14:26.346Z,15.48
2019-02-28T11:19:30.816Z,15.56
2019-02-28T11:24:35.136Z,15.67
2019-02-28T11:29:38.896Z,15.64
2019-02-28T11:34:42.838Z,15.68
2019-02-28T11:39:47.100Z,15.84
2019-02-28T11:44:50.819Z,16.03
2019-02-28T11:50:00.366Z,16.32
2019-02-28T11:55:02.361Z,16.48
2019-02-28T12:00:14.185Z,16.55
2019-02-28T12:05:20.435Z,16.72
2019-02-28T12:10:27.070Z,16.98
2019-02-28T12:15:31.770Z,17.08
2019-02-28T12:20:35.886Z,17.05
2019-02-28T12:25:42.487Z,17.18
2019-02-28T12:30:45.156Z,17.32
2019-02-28T12:35:48.778Z,17.22
2019-02-28T12:40:52.989Z,17.04
2019-02-28T12:45:59.947Z,16.78
2019-02-28T12:51:05.368Z,16.87
2019-02-28T12:56:11.247Z,17.03
2019-02-28T13:01:14.194Z,17.01
2019-02-28T13:06:23.413Z,16.91
2019-02-28T13:11:23.434Z,16.63
2019-02-28T13:16:27.430Z,16.73
2019-02-28T13:21:31.339Z,16.84
2019-02-28T13:26:34.797Z,16.81
2019-02-28T13:31:38.510Z,16.70
2019-02-28T13:36:42.778Z,16.62
2019-02-28T13:41:46.967Z,16.61
2019-02-28T13:46:50.878Z,16.49
2019-02-28T13:51:54.750Z,16.37
2019-02-28T13:56:57.747Z,16.32
2019-02-28T14:02:00.728Z,16.27
2019-02-28T14:07:03.778Z,16.31
2019-02-28T14:12:06.703Z,16.17
2019-02-28T14:17:09.525Z,16.12
2019-02-28T14:22:12.368Z,15.97
2019-02-28T14:27:15.218Z,16.00
2019-02-28T14:32:17.951Z,15.99
2019-02-28T14:37:20.695Z,15.90
2019-02-28T14:42:23.452Z,15.86
2019-02-28T14:47:28.500Z,15.74
2019-02-28T14:52:30.832Z,15.73
2019-02-28T14:57:33.733Z,15.69
2019-02-28T15:02:36.586Z,15.76
2019-02-28T15:07:39.735Z,15.76
2019-02-28T15:12:44.212Z,15.80
2019-02-28T15:17:47.073Z,15.79
2019-02-28T15:22:52.507Z,15.69
2019-02-28T15:27:54.680Z,15.71
2019-02-28T15:32:57.445Z,15.69
2019-02-28T15:38:00.162Z,15.62
2019-02-28T15:43:02.987Z,15.50
2019-02-28T15:48:05.724Z,15.39
2019-02-28T15:53:11.193Z,15.22
2019-02-28T15:58:13.135Z,15.09
2019-02-28T16:03:16.790Z,15.04
2019-02-28T16:08:20.212Z,14.99
2019-02-28T16:13:25.877Z,14.90
2019-02-28T16:18:27.562Z,14.82
2019-02-28T16:23:31.083Z,14.81
2019-02-28T16:28:34.078Z,14.86
2019-02-28T16:33:37.361Z,14.84
2019-02-28T16:38:42.411Z,14.70
2019-02-28T16:43:45.081Z,14.57
2019-02-28T16:48:47.806Z,14.41
2019-02-28T16:53:50.511Z,14.25
2019-02-28T16:58:53.789Z,14.16
2019-02-28T17:03:58.068Z,14.14
2019-02-28T17:09:32.458Z,14.07
2019-02-28T17:14:35.309Z,14.06
2019-02-28T17:19:38.105Z,14.00
2019-02-28T17:24:45.737Z,14.02
2019-02-28T17:29:53.619Z,14.01
2019-02-28T17:34:58.982Z,13.98
2019-02-28T17:40:01.054Z,13.99
2019-02-28T17:45:23.421Z,13.90
2019-02-28T17:51:03.051Z,13.79
2019-02-28T17:56:44.636Z,13.55
2019-02-28T18:02:39.548Z,13.45
2019-02-28T18:08:37.493Z,13.40
2019-02-28T18:14:13.244Z,13.40
2019-02-28T18:25:17.331Z,13.33
2019-02-28T18:31:19.249Z,13.41
2019-02-28T18:36:25.180Z,13.41
2019-02-28T18:41:27.914Z,13.42
2019-02-28T18:46:30.857Z,13.44
2019-02-28T18:51:33.761Z,13.47
2019-02-28T18:56:44.881Z,13.49
2019-02-28T19:01:47.723Z,13.54
2019-02-28T19:06:50.477Z,13.60
2019-02-28T19:11:57.537Z,13.58
2019-02-28T19:17:00.349Z,13.48
2019-02-28T19:22:03.324Z,13.32
2019-02-28T19:27:06.275Z,13.11
2019-02-28T19:32:09.140Z,13.07
2019-02-28T19:37:11.881Z,13.19
2019-02-28T19:42:14.636Z,13.30
2019-02-28T19:47:17.391Z,13.42
2019-02-28T19:52:20.159Z,13.57
2019-02-28T19:57:22.937Z,13.52
2019-02-28T20:02:25.918Z,13.63
2019-02-28T20:07:29.026Z,13.67
2019-02-28T20:12:31.813Z,13.67
2019-02-28T20:17:34.697Z,13.71
2019-02-28T20:22:37.440Z,13.74
2019-02-28T20:27:40.213Z,13.74
2019-02-28T20:32:43.015Z,13.69
2019-02-28T20:37:45.719Z,13.67
2019-02-28T20:42:48.445Z,13.64
2019-02-28T20:47:51.210Z,13.64
2019-02-28T20:52:54.322Z,13.67
2019-02-28T20:57:57.048Z,13.62
2019-02-28T21:02:59.815Z,13.59
2019-02-28T21:08:02.555Z,13.51
2019-02-28T21:13:05.281Z,13.55
2019-02-28T21:18:08.053Z,13.60
2019-02-28T21:23:10.852Z,13.61
2019-02-28T21:28:13.581Z,13.67
2019-02-28T21:33:16.330Z,13.66
2019-02-28T21:38:19.074Z,13.67
2019-02-28T21:43:21.779Z,13.58
2019-02-28T21:48:24.569Z,13.27
2019-02-28T21:53:27.379Z,13.09
2019-02-28T21:58:31.310Z,13.04
2019-02-28T22:03:34.157Z,12.83
2019-02-28T22:08:36.890Z,12.79
2019-02-28T22:13:39.666Z,12.76
2019-02-28T22:18:42.405Z,12.77
2019-02-28T22:23:45.136Z,12.78
2019-02-28T22:28:47.859Z,12.67
2019-02-28T22:34:22.345Z,12.50
2019-02-28T22:39:25.037Z,12.45
2019-02-28T22:44:27.761Z,12.38
2019-02-28T22:49:30.465Z,12.33
2019-02-28T22:54:33.207Z,12.45
2019-02-28T22:59:35.924Z,12.50
2019-02-28T23:04:38.928Z,12.37
2019-02-28T23:09:41.670Z,12.15
2019-02-28T23:14:44.405Z,12.03
2019-02-28T23:19:47.128Z,12.00
2019-02-28T23:24:49.858Z,12.04
2019-02-28T23:31:24.385Z,12.10
2019-02-28T23:36:27.262Z,12.14
2019-02-28T23:41:30.091Z,12.14
2019-02-28T23:46:32.803Z,12.26
2019-02-28T23:51:35.516Z,12.17
2019-02-28T23:56:38.225Z,12.06
